Terminal Aerodrome Forecast
Issued by NWS

Home | Current Version | Previous Version | Text Only | Print | Product List | Glossary On
Versions: 1 2 3 4 5 6 7 8 9 10 11 12 13 14 15 16 17 18 19 20 21 22
000
FTUS43 KAPX 270153 AAA
TAFTVC
TAF AMD
KTVC 270153Z 2702/2724 VRB03KT 6SM BR SCT025 OVC050
     FM270800 22008KT P6SM SCT025 OVC050
     FM271500 24010G18KT 6SM BR BKN015
     FM272100 28009KT P6SM OVC025=

USA.gov is the U.S. government's official web portal to all federal, state and local government web resources and services.